Share

غليزان, الجزائر

Ghriss (DAOV) Elev 1686 ft | 35.21 °N, 0.15 °E | Change Station

Current weather conditions updated 1 hour ago

Clear
صافية
54 °F
Feels Like 54 °F
N
0
ريح متغير ريح from شمال
شروق الشمس 6:21 AM
غروب الشمس 7:33 PM
قمر الأحدب الأخير

Today is forecast to be nearly the same temperature as yesterday.

الضغط 30.01 في
وضوح الرؤية -9999.0 أميال
سحابات
نقطة الندى 52 °F
الرطوبة 94%
Rainfall 0.00 في
عمق الثلج Not available.
الأشعة فوق البنفسجية Not available.
Pollen Not available.
جودة الهواء Not available.
Flu Activity Not available.
METAR DAOV 180700Z 00000KT CAVOK 12/11 Q1016

More Conditions Fewer Conditions

الضغط 30.01 في
وضوح الرؤية -9999.0 أميال
سحابات
نقطة الندى 52 °F
الرطوبة 94%
Rainfall 0.00 في
عمق الثلج Not available.
الأشعة فوق البنفسجية Not available.
Pollen Not available.
جودة الهواء Not available.
Flu Activity Not available.
METAR DAOV 180700Z 00000KT CAVOK 12/11 Q1016

More Conditions Fewer Conditions

10-Day Forecast

Almanac

علم الفلك

Apr. 18, 2014 Rise Set
Actual Time 6:21 AM CET 7:33 PM CET
Civil Twilight 5:54 AM CET 7:59 PM CET
Nautical Twilight 5:23 AM CET 8:31 PM CET
Astronomical Twilight 4:50 AM CET 9:04 PM CET
قمر 10:59 PM CET 8:34 AM CET
Length Of Visible Light 14h 05m
طول الیوم
13h 12m
Tomorrow will be 2m 8s longer.
الأحدب الأخير, 89% of the Moon is Illuminated
هذا اليوم
الأحدب الأخير
Apr 22
الربع الآخر
Apr 29
New
May 6
الربع الاول
May 14
بدر

Yesterday's Extremes

Country Highs Country Lows

Community

  • SUNRISE THROUGH THE TREES.
    SUNRISE THROUGH THE TREES.
  • Dog Wood Blossoms
    Dog Wood Blossoms
  • Morning Light
    Morning Light
  • New Day
    New Day
  • Lake Michigan Sunrise
    Lake Michigan Sunrise

WunderPhotos

Upload Photos

1,702,279 photos uploaded!

WunderBlogs® & News

Nearby

جودة الهواء

Not available.

عمق الثلج

Not available.

Coastal Water Temperatures

مكان درجات الحرارة
No Stations Reporting

Earthquake Activity

City Distance Mag. Time & Date
No recent earthquake activity has been reported nearby.
Minimum magnitude displayed is 2.5.

Nearby Weather Stations

There are no personal weather stations in this area.

What do you think?

We're not finished. Please let us know what you like, what you don't like, and what you are still missing.